sensor_id;sensor_type;location;lat;lon;timestamp;pressure;altitude;pressure_sealevel;temperature;humidity
76070;BME280;64768;51.738;5.852;2022-12-29T05:49:56;100090.09;;;8.45;100.00
76070;BME280;64768;51.738;5.852;2022-12-29T06:01:22;100078.63;;;8.27;100.00
76070;BME280;64768;51.738;5.852;2022-12-29T06:02:58;100086.72;;;8.34;100.00
76070;BME280;64768;51.738;5.852;2022-12-29T07:09:56;100095.16;;;8.02;100.00
76070;BME280;64768;51.738;5.852;2022-12-29T08:09:15;100162.81;;;8.16;100.00
76070;BME280;64768;51.738;5.852;2022-12-29T08:11:47;100165.94;;;8.15;100.00
76070;BME280;64768;51.738;5.852;2022-12-29T08:14:16;100173.63;;;8.20;100.00
76070;BME280;64768;51.738;5.852;2022-12-29T08:16:45;100164.03;;;8.08;100.00
76070;BME280;64768;51.738;5.852;2022-12-29T08:19:15;100168.63;;;8.18;100.00
76070;BME280;64768;51.738;5.852;2022-12-29T08:21:49;100184.84;;;8.22;100.00
76070;BME280;64768;51.738;5.852;2022-12-29T08:24:22;100179.88;;;8.17;100.00
76070;BME280;64768;51.738;5.852;2022-12-29T08:26:51;100181.41;;;8.18;100.00
76070;BME280;64768;51.738;5.852;2022-12-29T08:29:25;100181.00;;;8.19;100.00
76070;BME280;64768;51.738;5.852;2022-12-29T08:31:53;100190.97;;;8.29;100.00
76070;BME280;64768;51.738;5.852;2022-12-29T08:34:22;100184.44;;;8.23;100.00
76070;BME280;64768;51.738;5.852;2022-12-29T08:36:51;100182.47;;;8.31;100.00
76070;BME280;64768;51.738;5.852;2022-12-29T08:39:23;100172.78;;;8.26;100.00
76070;BME280;64768;51.738;5.852;2022-12-29T08:41:53;100157.66;;;8.32;100.00
76070;BME280;64768;51.738;5.852;2022-12-29T08:44:24;100175.44;;;8.37;100.00
76070;BME280;64768;51.738;5.852;2022-12-29T08:46:53;100170.06;;;8.30;100.00
76070;BME280;64768;51.738;5.852;2022-12-29T08:49:22;100182.78;;;8.40;100.00
76070;BME280;64768;51.738;5.852;2022-12-29T08:51:51;100181.28;;;8.35;100.00
76070;BME280;64768;51.738;5.852;2022-12-29T08:54:22;100177.41;;;8.36;100.00
76070;BME280;64768;51.738;5.852;2022-12-29T08:56:54;100180.09;;;8.36;100.00
76070;BME280;64768;51.738;5.852;2022-12-29T08:59:23;100168.03;;;8.41;100.00
76070;BME280;64768;51.738;5.852;2022-12-29T09:01:51;100170.34;;;8.42;100.00
76070;BME280;64768;51.738;5.852;2022-12-29T09:04:21;100166.06;;;8.45;100.00
76070;BME280;64768;51.738;5.852;2022-12-29T09:06:50;100170.34;;;8.46;100.00
76070;BME280;64768;51.738;5.852;2022-12-29T09:09:19;100157.81;;;8.56;100.00
76070;BME280;64768;51.738;5.852;2022-12-29T09:11:51;100153.16;;;8.56;100.00
76070;BME280;64768;51.738;5.852;2022-12-29T09:14:20;100165.91;;;8.59;99.87
76070;BME280;64768;51.738;5.852;2022-12-29T09:16:51;100184.03;;;8.69;99.88
76070;BME280;64768;51.738;5.852;2022-12-29T09:19:43;100169.38;;;8.63;99.69
76070;BME280;64768;51.738;5.852;2022-12-29T09:22:18;100174.41;;;8.65;100.00
76070;BME280;64768;51.738;5.852;2022-12-29T09:24:47;100177.88;;;8.65;100.00
76070;BME280;64768;51.738;5.852;2022-12-29T09:27:22;100200.66;;;8.75;99.83
76070;BME280;64768;51.738;5.852;2022-12-29T09:29:51;100179.78;;;8.68;99.75
76070;BME280;64768;51.738;5.852;2022-12-29T09:32:20;100180.13;;;8.74;99.37
76070;BME280;64768;51.738;5.852;2022-12-29T09:38:15;100182.97;;;8.63;99.99
76070;BME280;64768;51.738;5.852;2022-12-29T09:40:49;100167.75;;;8.69;99.37
76070;BME280;64768;51.738;5.852;2022-12-29T09:43:37;100193.31;;;8.72;99.28
76070;BME280;64768;51.738;5.852;2022-12-29T09:46:16;100205.75;;;8.69;99.06
76070;BME280;64768;51.738;5.852;2022-12-29T09:48:55;100216.97;;;8.71;99.61
76070;BME280;64768;51.738;5.852;2022-12-29T09:51:28;100222.06;;;8.69;99.89
76070;BME280;64768;51.738;5.852;2022-12-29T09:54:01;100206.94;;;8.68;99.67
76070;BME280;64768;51.738;5.852;2022-12-29T09:56:34;100219.34;;;8.69;99.21
76070;BME280;64768;51.738;5.852;2022-12-29T09:59:10;100225.91;;;8.72;99.63
76070;BME280;64768;51.738;5.852;2022-12-29T10:01:45;100249.88;;;8.77;100.00
76070;BME280;64768;51.738;5.852;2022-12-29T10:04:17;100254.94;;;8.75;99.54
76070;BME280;64768;51.738;5.852;2022-12-29T10:06:56;100244.50;;;8.73;100.00
76070;BME280;64768;51.738;5.852;2022-12-29T10:09:31;100244.19;;;8.68;100.00
76070;BME280;64768;51.738;5.852;2022-12-29T10:12:15;100252.69;;;8.70;100.00
76070;BME280;64768;51.738;5.852;2022-12-29T10:15:03;100258.03;;;8.77;100.00
76070;BME280;64768;51.738;5.852;2022-12-29T10:17:40;100261.91;;;8.76;100.00
76070;BME280;64768;51.738;5.852;2022-12-29T10:20:28;100264.69;;;8.72;100.00
76070;BME280;64768;51.738;5.852;2022-12-29T10:23:10;100264.69;;;8.72;100.00
76070;BME280;64768;51.738;5.852;2022-12-29T10:25:48;100261.59;;;8.70;100.00
76070;BME280;64768;51.738;5.852;2022-12-29T10:28:22;100274.72;;;8.76;100.00
76070;BME280;64768;51.738;5.852;2022-12-29T10:30:56;100297.25;;;8.72;100.00
76070;BME280;64768;51.738;5.852;2022-12-29T10:33:34;100269.41;;;8.61;100.00
76070;BME280;64768;51.738;5.852;2022-12-29T10:36:12;100301.63;;;8.63;100.00
76070;BME280;64768;51.738;5.852;2022-12-29T10:38:47;100301.63;;;8.59;100.00
76070;BME280;64768;51.738;5.852;2022-12-29T10:41:21;100304.69;;;8.65;100.00
76070;BME280;64768;51.738;5.852;2022-12-29T10:43:57;100307.41;;;8.65;100.00
76070;BME280;64768;51.738;5.852;2022-12-29T10:46:34;100315.53;;;8.68;100.00
76070;BME280;64768;51.738;5.852;2022-12-29T10:49:05;100310.53;;;8.63;100.00
76070;BME280;64768;51.738;5.852;2022-12-29T10:51:41;100317.13;;;8.62;100.00
76070;BME280;64768;51.738;5.852;2022-12-29T10:54:15;100310.19;;;8.54;100.00
76070;BME280;64768;51.738;5.852;2022-12-29T10:56:49;100322.94;;;8.64;100.00
76070;BME280;64768;51.738;5.852;2022-12-29T10:59:21;100317.09;;;8.66;100.00
76070;BME280;64768;51.738;5.852;2022-12-29T11:02:00;100330.28;;;8.67;100.00
76070;BME280;64768;51.738;5.852;2022-12-29T11:04:45;100337.25;;;8.68;100.00
76070;BME280;64768;51.738;5.852;2022-12-29T11:07:17;100338.78;;;8.69;100.00
76070;BME280;64768;51.738;5.852;2022-12-29T11:09:49;100353.09;;;8.73;100.00
76070;BME280;64768;51.738;5.852;2022-12-29T11:12:25;100337.28;;;8.61;100.00
76070;BME280;64768;51.738;5.852;2022-12-29T11:15:14;100331.78;;;8.72;100.00
76070;BME280;64768;51.738;5.852;2022-12-29T11:18:26;100354.59;;;8.82;100.00
76070;BME280;64768;51.738;5.852;2022-12-29T11:21:50;100340.31;;;8.70;100.00
76070;BME280;64768;51.738;5.852;2022-12-29T11:25:12;100364.19;;;8.90;100.00
76070;BME280;64768;51.738;5.852;2022-12-29T11:30:40;100369.19;;;8.98;100.00
76070;BME280;64768;51.738;5.852;2022-12-29T11:33:10;100373.44;;;8.99;99.95
76070;BME280;64768;51.738;5.852;2022-12-29T11:35:43;100354.47;;;8.92;100.00
76070;BME280;64768;51.738;5.852;2022-12-29T11:38:19;100356.44;;;8.92;99.88
76070;BME280;64768;51.738;5.852;2022-12-29T11:40:55;100379.22;;;9.05;99.78
76070;BME280;64768;51.738;5.852;2022-12-29T11:43:33;100393.16;;;9.07;100.00
76070;BME280;64768;51.738;5.852;2022-12-29T11:46:06;100379.59;;;9.03;100.00
76070;BME280;64768;51.738;5.852;2022-12-29T11:48:39;100387.34;;;9.05;100.00
76070;BME280;64768;51.738;5.852;2022-12-29T11:51:11;100388.53;;;9.04;99.69
76070;BME280;64768;51.738;5.852;2022-12-29T11:53:51;100389.34;;;9.01;99.86
76070;BME280;64768;51.738;5.852;2022-12-29T11:56:33;100389.75;;;8.99;99.75
76070;BME280;64768;51.738;5.852;2022-12-29T11:59:21;100372.31;;;8.93;99.72
76070;BME280;64768;51.738;5.852;2022-12-29T12:29:13;100413.09;;;8.90;100.00
76070;BME280;64768;51.738;5.852;2022-12-29T12:32:28;100415.75;;;8.93;100.00
76070;BME280;64768;51.738;5.852;2022-12-29T13:12:36;100449.88;;;9.46;97.88
76070;BME280;64768;51.738;5.852;2022-12-29T13:22:49;100439.81;;;9.40;97.51
76070;BME280;64768;51.738;5.852;2022-12-29T13:25:39;100459.91;;;9.53;96.96
76070;BME280;64768;51.738;5.852;2022-12-29T13:59:03;100480.38;;;9.20;97.28
76070;BME280;64768;51.738;5.852;2022-12-29T14:08:52;100507.97;;;9.15;98.00
76070;BME280;64768;51.738;5.852;2022-12-29T14:19:03;100486.03;;;8.88;98.73
76070;BME280;64768;51.738;5.852;2022-12-29T14:22:08;100503.44;;;8.97;99.20
76070;BME280;64768;51.738;5.852;2022-12-29T14:25:08;100490.69;;;8.87;99.32
76070;BME280;64768;51.738;5.852;2022-12-29T14:28:23;100500.00;;;8.86;99.55
76070;BME280;64768;51.738;5.852;2022-12-29T14:44:33;100497.00;;;8.70;99.41
76070;BME280;64768;51.738;5.852;2022-12-29T14:50:57;100518.31;;;8.79;99.63
76070;BME280;64768;51.738;5.852;2022-12-29T14:53:50;100525.66;;;8.78;99.68
76070;BME280;64768;51.738;5.852;2022-12-29T14:56:23;100521.44;;;8.70;99.62
76070;BME280;64768;51.738;5.852;2022-12-29T14:58:54;100528.38;;;8.75;99.84
76070;BME280;64768;51.738;5.852;2022-12-29T15:01:36;100539.66;;;8.73;99.95
76070;BME280;64768;51.738;5.852;2022-12-29T15:04:15;100540.44;;;8.70;99.77
76070;BME280;64768;51.738;5.852;2022-12-29T15:06:49;100533.13;;;8.63;99.62
76070;BME280;64768;51.738;5.852;2022-12-29T15:09:26;100549.00;;;8.61;99.84
76070;BME280;64768;51.738;5.852;2022-12-29T15:12:00;100528.06;;;8.58;99.77
76070;BME280;64768;51.738;5.852;2022-12-29T15:14:34;100545.16;;;8.62;99.92
76070;BME280;64768;51.738;5.852;2022-12-29T15:17:10;100539.38;;;8.50;99.80
76070;BME280;64768;51.738;5.852;2022-12-29T15:19:39;100527.38;;;8.47;99.75
76070;BME280;64768;51.738;5.852;2022-12-29T15:22:12;100533.94;;;8.53;99.90
76070;BME280;64768;51.738;5.852;2022-12-29T15:24:42;100542.44;;;8.55;100.00
76070;BME280;64768;51.738;5.852;2022-12-29T15:27:13;100523.88;;;8.47;100.00
76070;BME280;64768;51.738;5.852;2022-12-29T15:29:44;100538.22;;;8.51;99.94
76070;BME280;64768;51.738;5.852;2022-12-29T15:32:20;100535.50;;;8.47;99.87
76070;BME280;64768;51.738;5.852;2022-12-29T15:34:51;100547.50;;;8.50;100.00
76070;BME280;64768;51.738;5.852;2022-12-29T15:37:25;100554.88;;;8.49;100.00
76070;BME280;64768;51.738;5.852;2022-12-29T15:39:55;100562.66;;;8.47;99.94
76070;BME280;64768;51.738;5.852;2022-12-29T15:45:15;100544.47;;;8.37;99.98
76070;BME280;64768;51.738;5.852;2022-12-29T15:47:46;100550.25;;;8.42;100.00
76070;BME280;64768;51.738;5.852;2022-12-29T15:50:23;100549.50;;;8.38;100.00
76070;BME280;64768;51.738;5.852;2022-12-29T15:52:57;100546.78;;;8.38;100.00
76070;BME280;64768;51.738;5.852;2022-12-29T15:55:30;100538.22;;;8.29;99.88
76070;BME280;64768;51.738;5.852;2022-12-29T15:58:01;100552.19;;;8.28;100.00
76070;BME280;64768;51.738;5.852;2022-12-29T16:00:33;100544.88;;;8.18;100.00
76070;BME280;64768;51.738;5.852;2022-12-29T16:03:05;100569.25;;;8.28;100.00
76070;BME280;64768;51.738;5.852;2022-12-29T16:05:37;100559.97;;;8.22;100.00
76070;BME280;64768;51.738;5.852;2022-12-29T16:08:22;100547.97;;;8.12;100.00
76070;BME280;64768;51.738;5.852;2022-12-29T16:10:52;100572.78;;;8.18;100.00
76070;BME280;64768;51.738;5.852;2022-12-29T16:13:26;100560.00;;;8.08;100.00
76070;BME280;64768;51.738;5.852;2022-12-29T16:16:00;100580.94;;;8.15;100.00
76070;BME280;64768;51.738;5.852;2022-12-29T16:18:33;100566.97;;;8.09;100.00
76070;BME280;64768;51.738;5.852;2022-12-29T16:21:05;100573.94;;;8.10;100.00
76070;BME280;64768;51.738;5.852;2022-12-29T16:23:49;100565.44;;;8.04;99.89
76070;BME280;64768;51.738;5.852;2022-12-29T16:26:20;100561.97;;;8.00;100.00
76070;BME280;64768;51.738;5.852;2022-12-29T16:28:53;100566.63;;;8.00;100.00
76070;BME280;64768;51.738;5.852;2022-12-29T16:31:24;100569.31;;;7.96;100.00
76070;BME280;64768;51.738;5.852;2022-12-29T16:33:54;100570.09;;;7.93;100.00
76070;BME280;64768;51.738;5.852;2022-12-29T16:36:31;100571.66;;;7.91;100.00
76070;BME280;64768;51.738;5.852;2022-12-29T16:39:23;100579.41;;;7.81;100.00
76070;BME280;64768;51.738;5.852;2022-12-29T16:41:53;100574.78;;;7.82;100.00
76070;BME280;64768;51.738;5.852;2022-12-29T16:44:24;100572.03;;;7.75;100.00
76070;BME280;64768;51.738;5.852;2022-12-29T16:46:59;100585.97;;;7.77;100.00
76070;BME280;64768;51.738;5.852;2022-12-29T16:49:32;100589.09;;;7.79;100.00
76070;BME280;64768;51.738;5.852;2022-12-29T16:52:11;100593.34;;;7.76;100.00
76070;BME280;64768;51.738;5.852;2022-12-29T16:54:49;100602.66;;;7.72;100.00
76070;BME280;64768;51.738;5.852;2022-12-29T16:57:25;100604.56;;;7.75;100.00
76070;BME280;64768;51.738;5.852;2022-12-29T16:59:57;100608.06;;;7.65;100.00
76070;BME280;64768;51.738;5.852;2022-12-29T17:02:29;100596.44;;;7.61;100.00
76070;BME280;64768;51.738;5.852;2022-12-29T17:04:59;100620.84;;;7.68;100.00
76070;BME280;64768;51.738;5.852;2022-12-29T17:07:28;100613.50;;;7.65;100.00
76070;BME280;64768;51.738;5.852;2022-12-29T17:10:00;100620.06;;;7.57;100.00
76070;BME280;64768;51.738;5.852;2022-12-29T17:12:29;100627.81;;;7.58;100.00
76070;BME280;64768;51.738;5.852;2022-12-29T17:15:01;100620.84;;;7.50;100.00
76070;BME280;64768;51.738;5.852;2022-12-29T17:17:33;100630.13;;;7.52;100.00
76070;BME280;64768;51.738;5.852;2022-12-29T17:20:05;100636.31;;;7.53;100.00
76070;BME280;64768;51.738;5.852;2022-12-29T17:22:34;100635.94;;;7.51;100.00
76070;BME280;64768;51.738;5.852;2022-12-29T17:25:10;100638.22;;;7.45;100.00
76070;BME280;64768;51.738;5.852;2022-12-29T17:27:42;100644.81;;;7.48;100.00
76070;BME280;64768;51.738;5.852;2022-12-29T17:30:15;100635.13;;;7.36;100.00
76070;BME280;64768;51.738;5.852;2022-12-29T17:32:48;100646.34;;;7.42;100.00
76070;BME280;64768;51.738;5.852;2022-12-29T17:35:20;100648.69;;;7.36;100.00
76070;BME280;64768;51.738;5.852;2022-12-29T17:37:50;100656.81;;;7.36;100.00
76070;BME280;64768;51.738;5.852;2022-12-29T17:40:24;100658.69;;;7.29;100.00
76070;BME280;64768;51.738;5.852;2022-12-29T17:42:56;100649.81;;;7.25;100.00
76070;BME280;64768;51.738;5.852;2022-12-29T17:45:26;100656.75;;;7.22;100.00
76070;BME280;64768;51.738;5.852;2022-12-29T17:47:58;100679.97;;;7.27;100.00
76070;BME280;64768;51.738;5.852;2022-12-29T17:50:28;100667.59;;;7.18;100.00
76070;BME280;64768;51.738;5.852;2022-12-29T17:53:02;100669.91;;;7.16;100.00
76070;BME280;64768;51.738;5.852;2022-12-29T17:55:33;100679.97;;;7.16;100.00
76070;BME280;64768;51.738;5.852;2022-12-29T17:58:14;100659.75;;;6.99;100.00
76070;BME280;64768;51.738;5.852;2022-12-29T18:00:44;100662.47;;;6.96;100.00
76070;BME280;64768;51.738;5.852;2022-12-29T18:03:14;100681.09;;;7.08;100.00
76070;BME280;64768;51.738;5.852;2022-12-29T18:05:44;100679.47;;;6.92;100.00
76070;BME280;64768;51.738;5.852;2022-12-29T18:08:14;100675.22;;;6.91;100.00
76070;BME280;64768;51.738;5.852;2022-12-29T18:10:45;100698.03;;;6.90;100.00
76070;BME280;64768;51.738;5.852;2022-12-29T18:13:19;100698.41;;;6.89;100.00
76070;BME280;64768;51.738;5.852;2022-12-29T18:15:50;100702.28;;;6.91;100.00
76070;BME280;64768;51.738;5.852;2022-12-29T18:18:21;100703.81;;;6.89;100.00
76070;BME280;64768;51.738;5.852;2022-12-29T18:20:52;100703.44;;;6.87;100.00
76070;BME280;64768;51.738;5.852;2022-12-29T18:23:24;100702.97;;;6.78;100.00
76070;BME280;64768;51.738;5.852;2022-12-29T18:26:01;100711.47;;;6.76;100.00
76070;BME280;64768;51.738;5.852;2022-12-29T18:28:30;100714.19;;;6.76;100.00
76070;BME280;64768;51.738;5.852;2022-12-29T18:31:00;100700.19;;;6.63;100.00
76070;BME280;64768;51.738;5.852;2022-12-29T18:33:29;100725.41;;;6.75;100.00
76070;BME280;64768;51.738;5.852;2022-12-29T18:35:59;100721.13;;;6.70;100.00
76070;BME280;64768;51.738;5.852;2022-12-29T18:38:30;100714.50;;;6.64;100.00
76070;BME280;64768;51.738;5.852;2022-12-29T18:41:05;100711.75;;;6.57;100.00
76070;BME280;64768;51.738;5.852;2022-12-29T18:43:35;100695.06;;;6.48;100.00
76070;BME280;64768;51.738;5.852;2022-12-29T18:46:04;100719.84;;;6.53;100.00
76070;BME280;64768;51.738;5.852;2022-12-29T18:48:33;100721.38;;;6.51;100.00
76070;BME280;64768;51.738;5.852;2022-12-29T18:51:08;100736.09;;;6.57;100.00
76070;BME280;64768;51.738;5.852;2022-12-29T18:53:39;100723.28;;;6.47;100.00
76070;BME280;64768;51.738;5.852;2022-12-29T18:56:12;100734.09;;;6.47;100.00
76070;BME280;64768;51.738;5.852;2022-12-29T18:58:41;100726.72;;;6.44;100.00
76070;BME280;64768;51.738;5.852;2022-12-29T19:01:17;100708.47;;;6.33;100.00
76070;BME280;64768;51.738;5.852;2022-12-29T19:03:46;100738.34;;;6.48;100.00
76070;BME280;64768;51.738;5.852;2022-12-29T19:06:19;100730.19;;;6.41;100.00
76070;BME280;64768;51.738;5.852;2022-12-29T19:08:48;100733.97;;;6.32;100.00
76070;BME280;64768;51.738;5.852;2022-12-29T19:18:03;100756.84;;;6.39;100.00
76070;BME280;64768;51.738;5.852;2022-12-29T19:20:37;100745.91;;;6.24;100.00
76070;BME280;64768;51.738;5.852;2022-12-29T19:23:19;100755.22;;;6.30;100.00
76070;BME280;64768;51.738;5.852;2022-12-29T19:25:53;100744.38;;;6.27;100.00
76070;BME280;64768;51.738;5.852;2022-12-29T19:28:32;100772.22;;;6.31;100.00
76070;BME280;64768;51.738;5.852;2022-12-29T19:31:13;100752.81;;;6.18;100.00
76070;BME280;64768;51.738;5.852;2022-12-29T19:36:50;100760.88;;;6.15;100.00
76070;BME280;64768;51.738;5.852;2022-12-29T19:39:24;100763.66;;;6.22;100.00
76070;BME280;64768;51.738;5.852;2022-12-29T19:41:57;100763.25;;;6.20;100.00
76070;BME280;64768;51.738;5.852;2022-12-29T19:44:29;100784.56;;;6.28;100.00
76070;BME280;64768;51.738;5.852;2022-12-29T19:47:38;100791.91;;;6.28;100.00
76070;BME280;64768;51.738;5.852;2022-12-29T19:50:50;100767.44;;;6.14;100.00
76070;BME280;64768;51.738;5.852;2022-12-29T19:53:41;100768.97;;;6.11;100.00
76070;BME280;64768;51.738;5.852;2022-12-29T19:56:17;100786.47;;;6.24;100.00
76070;BME280;64768;51.738;5.852;2022-12-29T20:12:13;100779.00;;;6.11;100.00
76070;BME280;64768;51.738;5.852;2022-12-29T21:08:21;100844.47;;;5.93;100.00
76070;BME280;64768;51.738;5.852;2022-12-29T21:12:46;100846.78;;;5.91;100.00
76070;BME280;64768;51.738;5.852;2022-12-29T21:18:25;100845.56;;;5.89;100.00
76070;BME280;64768;51.738;5.852;2022-12-29T21:28:09;100852.41;;;5.83;100.00
76070;BME280;64768;51.738;5.852;2022-12-29T21:31:36;100835.25;;;5.68;100.00
76070;BME280;64768;51.738;5.852;2022-12-29T21:38:15;100849.66;;;5.76;100.00
76070;BME280;64768;51.738;5.852;2022-12-29T21:51:14;100872.00;;;5.72;100.00
76070;BME280;64768;51.738;5.852;2022-12-29T22:17:01;100899.56;;;5.55;100.00
76070;BME280;64768;51.738;5.852;2022-12-29T22:20:00;100895.97;;;5.48;100.00
76070;BME280;64768;51.738;5.852;2022-12-29T22:26:25;100920.34;;;5.51;100.00
76070;BME280;64768;51.738;5.852;2022-12-29T22:39:38;100924.09;;;5.43;100.00
76070;BME280;64768;51.738;5.852;2022-12-29T22:47:34;100946.16;;;5.49;100.00
76070;BME280;64768;51.738;5.852;2022-12-29T22:56:51;100940.25;;;5.39;100.00
76070;BME280;64768;51.738;5.852;2022-12-29T23:50:06;101006.56;;;5.14;100.00
76070;BME280;64768;51.738;5.852;2022-12-29T23:53:03;101039.56;;;5.27;100.00
